Time;durP1;ratioP1;P1;durP2;ratioP2;P2;SDS_P1;SDS_P2;PMS_P1;PMS_P2;Temp;Humidity;BMP_temperature;BMP_pressure;BME280_temperature;BME280_humidity;BME280_pressure;Samples;Min_cycle;Max_cycle;Signal;HPM_P1;HPM_P2
2022/12/31 00:01:38;;;;;;;55.28;30.08;;;;;;;3.01;92.46;100292.80;1827526;78;25564;-47
2022/12/31 00:04:04;;;;;;;53.23;28.75;;;;;;;3.03;92.98;100291.20;1827538;78;25380;-47
2022/12/31 00:06:34;;;;;;;52.00;27.50;;;;;;;3.07;92.60;100294.44;1827484;78;27418;-48
2022/12/31 00:09:05;;;;;;;53.45;28.73;;;;;;;3.09;92.58;100287.50;1827490;78;25359;-46
2022/12/31 00:11:34;;;;;;;48.85;26.87;;;;;;;3.12;92.78;100280.31;1827529;78;25521;-46
2022/12/31 00:14:01;;;;;;;49.73;27.70;;;;;;;3.13;92.45;100284.58;1827637;78;25597;-46
2022/12/31 00:16:35;;;;;;;53.52;27.55;;;;;;;3.15;92.56;100281.11;1827493;78;25609;-47
2022/12/31 00:19:04;;;;;;;56.88;28.38;;;;;;;3.16;92.64;100269.36;1827588;78;27661;-47
2022/12/31 00:21:33;;;;;;;44.55;26.80;;;;;;;3.17;92.76;100266.97;1827590;78;25601;-49
2022/12/31 00:24:02;;;;;;;50.25;30.25;;;;;;;3.18;92.38;100268.05;1827681;78;25400;-47
2022/12/31 00:26:32;;;;;;;51.15;27.45;;;;;;;3.18;92.96;100254.69;1827649;78;32628;-46
2022/12/31 00:29:03;;;;;;;49.67;27.85;;;;;;;3.18;92.55;100260.03;1827664;78;25475;-47
2022/12/31 00:31:34;;;;;;;51.53;27.10;;;;;;;3.17;92.01;100254.95;1797517;78;27184;-48
2022/12/31 00:34:02;;;;;;;48.23;27.00;;;;;;;3.20;92.77;100249.59;1827471;78;25458;-47
2022/12/31 00:36:38;;;;;;;53.05;28.07;;;;;;;3.18;92.60;100236.48;1827505;78;25546;-47
2022/12/31 00:39:08;;;;;;;52.93;27.52;;;;;;;3.17;92.28;100242.92;1797300;78;25423;-47
2022/12/31 00:41:36;;;;;;;50.73;27.07;;;;;;;3.18;92.16;100243.17;1827608;78;25429;-47
2022/12/31 00:44:03;;;;;;;46.18;28.12;;;;;;;3.22;92.35;100243.45;1827498;78;29630;-46
2022/12/31 00:46:30;;;;;;;50.85;28.38;;;;;;;3.24;92.84;100237.34;1794230;78;25859;-46
2022/12/31 00:48:58;;;;;;;54.18;29.60;;;;;;;3.26;92.34;100233.86;1821442;78;25519;-47
2022/12/31 00:51:26;;;;;;;53.17;28.12;;;;;;;3.29;92.46;100242.16;1821412;78;25771;-48
2022/12/31 00:53:55;;;;;;;53.95;28.40;;;;;;;3.31;92.24;100236.02;1821441;78;25565;-50
2022/12/31 00:56:27;;;;;;;48.00;27.15;;;;;;;3.33;92.09;100243.23;1821552;78;28094;-48
2022/12/31 00:58:55;;;;;;;46.20;26.33;;;;;;;3.34;91.81;100228.02;1821314;78;25559;-45
2022/12/31 01:01:30;;;;;;;49.73;26.17;;;;;;;3.34;91.48;100240.84;1821398;78;25451;-45
2022/12/31 01:04:04;;;;;;;50.15;26.27;;;;;;;3.36;91.85;100221.33;1820491;78;25466;-46
2022/12/31 01:06:31;;;;;;;47.88;27.37;;;;;;;3.37;91.71;100223.45;1820587;78;25567;-47
2022/12/31 01:08:57;;;;;;;47.08;27.35;;;;;;;3.38;91.51;100219.73;1821336;78;27558;-47
2022/12/31 01:11:28;;;;;;;50.15;26.42;;;;;;;3.39;91.60;100207.98;1821288;78;25992;-46
2022/12/31 01:13:57;;;;;;;;;;;;;;;3.39;91.33;100215.17;1823928;78;25459;-46
2022/12/31 01:16:26;;;;;;;;;;;;;;;3.39;91.14;100209.83;1857643;77;25433;-46
2022/12/31 01:18:54;;;;;;;;;;;;;;;3.39;91.46;100200.47;1857716;77;25451;-46
2022/12/31 01:21:24;;;;;;;46.65;25.43;;;;;;;3.38;91.19;100186.84;1854901;77;27609;-49
2022/12/31 01:23:50;;;;;;;44.95;25.88;;;;;;;3.34;90.87;100180.69;1821332;78;25379;-48
2022/12/31 01:26:18;;;;;;;51.77;27.37;;;;;;;3.33;90.96;100185.75;1854848;77;25592;-47
2022/12/31 01:28:46;;;;;;;51.33;27.87;;;;;;;3.30;90.79;100167.59;1821617;78;27391;-48
2022/12/31 01:31:18;;;;;;;49.77;26.45;;;;;;;3.29;90.98;100183.89;1854966;77;25376;-51
2022/12/31 01:33:45;;;;;;;52.38;28.15;;;;;;;3.27;90.81;100172.11;1789465;78;27828;-50
2022/12/31 01:36:20;;;;;;;50.20;28.60;;;;;;;3.26;90.78;100172.37;1821280;78;25193;-46
2022/12/31 01:38:47;;;;;;;45.83;25.45;;;;;;;3.26;90.91;100165.69;1820449;78;25385;-47
2022/12/31 01:41:19;;;;;;;55.33;27.85;;;;;;;3.25;90.87;100181.45;1821329;78;25428;-47
2022/12/31 01:43:57;;;;;;;51.95;27.30;;;;;;;3.24;90.84;100174.52;1821440;78;25428;-47
2022/12/31 01:46:46;;;;;;;43.50;25.45;;;;;;;3.23;90.75;100161.66;1814627;78;27559;-47
2022/12/31 01:49:26;;;;;;;48.05;26.50;;;;;;;3.24;90.64;100160.61;1804925;79;25487;-46
2022/12/31 01:52:08;;;;;;;46.20;25.27;;;;;;;3.23;90.83;100151.51;1804718;79;25459;-46
2022/12/31 01:54:52;;;;;;;50.65;25.17;;;;;;;3.22;91.15;100148.05;1804854;79;25412;-46
2022/12/31 01:57:22;;;;;;;47.13;25.82;;;;;;;3.25;91.00;100147.52;1746994;80;25438;-46
2022/12/31 01:59:49;;;;;;;;;;;;;;;3.27;91.47;100157.92;1775570;80;27522;-46
2022/12/31 02:02:16;;;;;;;45.38;24.85;;;;;;;3.29;91.16;100149.13;1772750;80;26068;-46
2022/12/31 02:04:43;;;;;;;48.85;26.07;;;;;;;3.27;91.12;100146.72;1772768;80;25564;-46
2022/12/31 02:07:11;;;;;;;45.05;25.65;;;;;;;3.28;90.96;100138.16;1772772;80;25474;-46
2022/12/31 02:09:41;;;;;;;46.00;25.40;;;;;;;3.29;91.04;100148.59;1772805;80;25685;-46
2022/12/31 02:12:09;;;;;;;50.48;26.87;;;;;;;3.31;91.14;100126.94;1757792;80;27875;-46
2022/12/31 02:14:46;;;;;;;46.85;24.27;;;;;;;3.30;91.12;100122.14;1772829;80;25664;-46
2022/12/31 02:17:34;;;;;;;44.75;26.52;;;;;;;3.31;90.97;100121.05;1772779;80;25582;-46
2022/12/31 02:20:25;;;;;;;42.50;24.90;;;;;;;3.34;91.02;100123.20;1772819;80;25619;-47
2022/12/31 02:23:34;;;;;;;45.35;24.72;;;;;;;3.36;90.92;100113.58;1757584;80;25643;-45
2022/12/31 02:26:31;;;;;;;39.95;23.12;;;;;;;3.39;90.87;100120.26;1772955;80;27494;-48
2022/12/31 02:29:28;;;;;;;43.83;22.62;;;;;;;3.41;90.85;100120.81;1745873;80;25889;-49
2022/12/31 02:32:06;;;;;;;40.50;21.87;;;;;;;3.43;91.27;100127.48;1772826;80;25463;-48
2022/12/31 02:34:44;;;;;;;36.68;22.55;;;;;;;3.46;91.29;100091.41;1762151;79;25474;-46
2022/12/31 02:37:13;;;;;;;42.40;22.05;;;;;;;3.47;90.91;100081.75;1804220;79;25608;-46
2022/12/31 02:39:42;;;;;;;44.23;22.42;;;;;;;3.48;90.80;100077.23;1775449;79;28580;-48
2022/12/31 02:42:11;;;;;;;27.37;15.58;;;;;;;3.46;90.73;100079.38;1805154;79;25373;-46
2022/12/31 02:44:42;;;;;;;39.88;21.80;;;;;;;3.45;90.50;100077.22;1804956;79;25605;-46
2022/12/31 02:47:30;;;;;;;38.50;22.55;;;;;;;3.44;90.45;100078.30;1815712;78;25439;-46
2022/12/31 02:50:34;;;;;;;40.93;21.40;;;;;;;3.43;90.50;100086.59;1801777;78;25655;-47
2022/12/31 02:53:49;;;;;;;37.45;21.35;;;;;;;3.41;90.34;100073.48;1833814;78;27503;-46
2022/12/31 02:56:27;;;;;;;37.95;18.98;;;;;;;3.39;90.53;100097.53;1833517;78;25513;-46
2022/12/31 03:02:15;;;;;;;34.48;20.30;;;;;;;3.44;90.71;100074.80;1704481;84;25541;-47
2022/12/31 03:04:46;;;;;;;39.05;19.85;;;;;;;3.45;90.64;100075.88;1704644;84;25599;-48
2022/12/31 03:07:18;;;;;;;36.75;20.52;;;;;;;3.46;90.45;100082.84;1676088;85;27499;-47
2022/12/31 03:09:46;;;;;;;36.35;20.60;;;;;;;3.44;90.28;100076.97;1676163;85;25669;-47
2022/12/31 03:15:00;;;;;;;36.40;21.05;;;;;;;3.43;90.21;100091.94;1676212;85;25536;-46
2022/12/31 03:17:27;;;;;;;36.80;20.75;;;;;;;3.40;90.26;100080.43;1676216;85;25516;-46
2022/12/31 03:22:42;;;;;;;34.00;19.75;;;;;;;3.41;90.80;100094.08;1676169;85;25575;-46
2022/12/31 03:27:59;;;;;;;32.60;18.50;;;;;;;3.40;90.59;100089.78;1676227;85;25686;-46
2022/12/31 03:30:26;;;;;;;;;;;;;;;3.41;90.72;100107.45;1678922;85;25550;-45
2022/12/31 03:32:55;;;;;;;32.50;18.52;;;;;;;3.40;90.83;100093.25;1676684;85;27499;-48
2022/12/31 03:35:21;;;;;;;36.48;19.00;;;;;;;3.41;90.51;100088.19;1676414;85;25607;-46
2022/12/31 03:37:49;;;;;;;31.87;19.05;;;;;;;3.42;90.72;100090.31;1676399;85;25622;-46
2022/12/31 03:40:17;;;;;;;33.23;18.48;;;;;;;3.42;90.58;100091.11;1785016;79;25544;-45
2022/12/31 03:42:44;;;;;;;33.88;20.15;;;;;;;3.42;90.63;100083.09;1801776;79;25629;-46
2022/12/31 03:45:12;;;;;;;31.25;18.23;;;;;;;3.44;90.69;100082.83;1801718;79;27452;-46
2022/12/31 03:47:39;;;;;;;33.85;18.77;;;;;;;3.44;90.65;100101.55;1801550;79;25564;-47
2022/12/31 03:50:09;;;;;;;28.98;17.90;;;;;;;3.47;90.80;100099.14;1801731;79;25446;-46
2022/12/31 03:52:35;;;;;;;;;;;;;;;3.48;90.61;100104.77;1799293;79;25668;-47
2022/12/31 03:55:02;;;;;;;29.15;18.25;;;;;;;3.52;90.56;100106.38;1801851;79;25565;-45
2022/12/31 03:57:29;;;;;;;31.02;17.82;;;;;;;3.52;90.68;100095.67;1801750;79;27636;-47
2022/12/31 03:59:55;;;;;;;29.18;17.32;;;;;;;3.56;90.55;100114.15;1801627;79;25742;-46
2022/12/31 04:02:22;;;;;;;29.00;17.75;;;;;;;3.58;90.62;100099.97;1801703;79;25587;-47
2022/12/31 04:04:48;;;;;;;28.40;17.57;;;;;;;3.64;90.56;100100.77;1801698;79;25602;-47
2022/12/31 04:07:14;;;;;;;28.60;16.93;;;;;;;3.67;90.56;100098.35;1770232;79;32372;-47
2022/12/31 04:09:41;;;;;;;35.90;18.12;;;;;;;3.72;90.57;100096.22;1801749;79;27528;-47
2022/12/31 04:12:07;;;;;;;29.75;16.93;;;;;;;3.77;90.47;100111.48;1801587;79;25444;-46
2022/12/31 04:14:34;;;;;;;29.35;15.88;;;;;;;3.80;90.45;100099.70;1801707;79;25447;-49
2022/12/31 04:17:00;;;;;;;30.30;16.73;;;;;;;3.85;90.42;100115.76;1789021;80;25624;-46
2022/12/31 04:19:26;;;;;;;27.10;17.07;;;;;;;3.88;90.34;100115.23;1821414;78;25443;-46
2022/12/31 04:21:52;;;;;;;25.15;15.78;;;;;;;3.93;90.29;100111.72;1758210;80;27348;-45
2022/12/31 04:24:19;;;;;;;27.07;15.70;;;;;;;3.97;90.28;100096.75;1788984;80;25815;-46
2022/12/31 04:26:45;;;;;;;25.08;16.00;;;;;;;4.01;90.22;100098.34;1789032;80;25464;-46
2022/12/31 04:29:11;;;;;;;25.65;16.27;;;;;;;4.06;90.26;100100.47;1788992;80;25500;-45
2022/12/31 04:31:37;;;;;;;26.68;15.43;;;;;;;4.14;90.21;100101.81;1789055;80;25618;-47
2022/12/31 04:34:04;;;;;;;29.65;15.88;;;;;;;4.18;90.10;100098.84;1758272;80;27341;-47
2022/12/31 04:36:30;;;;;;;27.73;14.95;;;;;;;4.25;89.98;100091.33;1788979;80;25698;-47
2022/12/31 04:38:57;;;;;;;27.45;15.23;;;;;;;4.28;89.82;100088.66;1789021;80;25432;-47
2022/12/31 04:41:25;;;;;;;26.42;15.72;;;;;;;4.33;89.71;100083.29;1758105;80;25551;-46
2022/12/31 04:43:54;;;;;;;22.98;15.13;;;;;;;4.37;89.58;100079.53;1788873;80;25618;-50
2022/12/31 04:46:25;;;;;;;29.52;15.70;;;;;;;4.38;89.47;100079.80;1789270;80;27570;-50
2022/12/31 04:48:52;;;;;;;24.52;14.87;;;;;;;4.41;89.34;100082.73;1793731;80;25465;-47
2022/12/31 04:51:20;;;;;;;26.35;14.87;;;;;;;4.43;89.21;100089.95;1765995;80;25579;-46
2022/12/31 04:53:47;;;;;;;25.90;14.53;;;;;;;4.45;89.12;100096.38;1794881;80;25557;-46
2022/12/31 04:56:13;;;;;;;24.82;14.13;;;;;;;4.46;89.07;100086.73;1794959;80;25462;-47
2022/12/31 04:58:41;;;;;;;25.72;14.83;;;;;;;4.49;89.01;100091.55;1794882;80;27548;-46
2022/12/31 05:01:08;;;;;;;26.20;15.40;;;;;;;4.50;88.96;100068.24;1794836;80;25549;-46
2022/12/31 05:03:35;;;;;;;25.95;14.90;;;;;;;4.53;88.91;100060.18;1794880;80;25427;-46
2022/12/31 05:06:07;;;;;;;22.82;14.13;;;;;;;4.55;88.83;100064.20;1794881;80;25613;-47
2022/12/31 05:08:34;;;;;;;23.32;14.07;;;;;;;4.55;88.76;100063.41;1794077;80;25581;-46
2022/12/31 05:11:00;;;;;;;25.08;13.68;;;;;;;4.57;88.70;100081.34;1794867;80;27470;-46
2022/12/31 05:13:28;;;;;;;27.30;14.47;;;;;;;4.58;88.67;100094.47;1794805;80;25561;-46
2022/12/31 05:15:54;;;;;;;25.48;14.60;;;;;;;4.59;88.72;100080.52;1794910;80;25642;-47
2022/12/31 05:18:20;;;;;;;26.95;14.38;;;;;;;4.62;88.70;100088.02;1765691;80;25598;-47
2022/12/31 05:20:47;;;;;;;25.82;14.93;;;;;;;4.62;88.63;100090.16;1794873;80;25404;-46
2022/12/31 05:23:15;;;;;;;25.23;14.58;;;;;;;4.65;88.65;100085.59;1794894;80;27586;-48
2022/12/31 05:25:44;;;;;;;23.42;14.28;;;;;;;4.67;88.59;100084.77;1794805;80;25925;-48
2022/12/31 05:28:11;;;;;;;24.47;13.90;;;;;;;4.68;88.48;100077.02;1766182;80;25420;-47
2022/12/31 05:30:38;;;;;;;24.25;14.03;;;;;;;4.72;88.38;100074.58;1794853;80;25645;-47
2022/12/31 05:33:04;;;;;;;24.25;14.78;;;;;;;4.73;88.32;100074.03;1794921;80;25411;-46
2022/12/31 05:35:30;;;;;;;24.52;14.50;;;;;;;4.75;88.32;100090.12;1795006;80;27494;-46
2022/12/31 05:37:59;;;;;;;27.62;14.73;;;;;;;4.77;88.24;100086.62;1794794;80;25617;-50
2022/12/31 05:40:26;;;;;;;24.72;14.25;;;;;;;4.80;88.16;100085.25;1794867;80;25606;-47
2022/12/31 05:42:52;;;;;;;21.62;13.20;;;;;;;4.84;88.21;100080.96;1794843;80;25514;-46
2022/12/31 05:45:18;;;;;;;24.07;14.25;;;;;;;4.84;88.12;100094.36;1794882;80;25561;-46
2022/12/31 05:47:45;;;;;;;21.77;13.50;;;;;;;4.87;88.08;100088.45;1793565;80;27707;-48
2022/12/31 05:50:16;;;;;;;24.25;14.40;;;;;;;4.90;87.99;100085.75;1788907;80;25456;-47
2022/12/31 05:52:45;;;;;;;23.10;13.25;;;;;;;4.91;87.92;100082.80;1789023;80;25459;-49
2022/12/31 05:55:12;;;;;;;21.65;12.85;;;;;;;4.92;87.89;100088.43;1788971;80;26021;-49
2022/12/31 05:57:40;;;;;;;25.97;14.83;;;;;;;4.94;87.90;100090.80;1789047;80;25463;-46
2022/12/31 06:00:10;;;;;;;23.95;14.60;;;;;;;4.95;87.90;100087.06;1789021;80;27517;-46
2022/12/31 06:02:36;;;;;;;22.00;14.70;;;;;;;4.96;87.88;100079.30;1788920;80;25461;-50
2022/12/31 06:05:04;;;;;;;26.15;14.60;;;;;;;4.98;87.87;100074.45;1789011;80;25567;-47
2022/12/31 06:07:30;;;;;;;24.57;14.10;;;;;;;5.00;87.89;100076.31;1758061;80;25599;-48
2022/12/31 06:09:56;;;;;;;23.42;13.78;;;;;;;5.02;87.89;100074.97;1789025;80;25612;-47
2022/12/31 06:12:22;;;;;;;25.62;14.35;;;;;;;5.03;87.99;100087.28;1758282;80;27529;-49
2022/12/31 06:14:49;;;;;;;25.62;14.68;;;;;;;5.07;88.00;100084.84;1788931;80;33202;-47
2022/12/31 06:17:14;;;;;;;25.05;13.95;;;;;;;5.09;88.02;100071.98;1788971;80;25416;-50
2022/12/31 06:19:41;;;;;;;25.52;14.60;;;;;;;5.12;88.06;100078.66;1788936;80;34679;-46
2022/12/31 06:22:07;;;;;;;22.75;14.33;;;;;;;5.15;88.21;100086.95;1788989;80;25606;-48
2022/12/31 06:24:33;;;;;;;28.27;15.70;;;;;;;5.18;88.35;100077.56;1788954;80;27472;-50
2022/12/31 06:26:59;;;;;;;25.43;14.78;;;;;;;5.19;88.46;100077.28;1788865;80;25413;-47
2022/12/31 06:29:25;;;;;;;25.43;14.95;;;;;;;5.24;88.59;100077.77;1789042;80;25480;-48
2022/12/31 06:31:51;;;;;;;25.65;15.53;;;;;;;5.28;88.64;100076.67;1788929;80;25535;-47
2022/12/31 06:34:17;;;;;;;27.82;16.40;;;;;;;5.31;88.74;100076.12;1789140;80;25440;-46
2022/12/31 06:36:43;;;;;;;24.35;14.75;;;;;;;5.35;88.90;100092.73;1789019;80;27674;-47
2022/12/31 06:39:09;;;;;;;27.60;15.43;;;;;;;5.38;88.90;100104.77;1789040;80;25427;-47
2022/12/31 06:41:36;;;;;;;23.90;15.25;;;;;;;5.41;88.91;100110.91;1788968;80;25553;-47
2022/12/31 06:44:02;;;;;;;28.35;15.83;;;;;;;5.45;88.98;100096.41;1788983;80;25852;-46
2022/12/31 06:46:28;;;;;;;28.23;15.03;;;;;;;5.50;88.89;100095.03;1788941;80;25615;-46
2022/12/31 06:48:54;;;;;;;28.60;16.30;;;;;;;5.53;88.92;100097.16;1792043;80;27608;-46
2022/12/31 06:51:21;;;;;;;28.40;15.43;;;;;;;5.56;88.86;100095.27;1794719;80;25507;-48
2022/12/31 06:53:50;;;;;;;27.95;15.10;;;;;;;5.58;88.84;100096.59;1794844;80;25385;-47
2022/12/31 06:56:24;;;;;;;26.97;15.78;;;;;;;5.61;88.80;100097.35;1794933;80;25569;-47
2022/12/31 06:58:52;;;;;;;31.33;16.55;;;;;;;5.64;88.91;100091.19;1794890;80;25413;-49
2022/12/31 07:01:51;;;;;;;27.52;15.35;;;;;;;5.66;88.95;100096.52;1794868;80;27517;-49
2022/12/31 07:04:50;;;;;;;28.50;16.20;;;;;;;5.70;88.95;100100.78;1794245;80;25451;-47
2022/12/31 07:07:31;;;;;;;28.65;16.20;;;;;;;5.76;89.00;100105.04;1795060;79;25405;-47
2022/12/31 07:10:23;;;;;;;24.55;15.18;;;;;;;5.79;89.01;100106.62;1794973;80;25583;-48
2022/12/31 07:13:16;;;;;;;25.68;15.03;;;;;;;5.83;89.10;100106.85;1794816;80;25539;-46
2022/12/31 07:16:05;;;;;;;27.82;16.15;;;;;;;5.86;89.16;100114.34;1766056;80;27505;-47
2022/12/31 07:18:58;;;;;;;26.48;14.93;;;;;;;5.91;89.14;100121.56;1794946;80;25831;-46
2022/12/31 07:21:35;;;;;;;24.95;15.00;;;;;;;5.95;89.16;100123.38;1765500;80;25655;-48
2022/12/31 07:24:04;;;;;;;27.30;15.75;;;;;;;6.00;89.21;100132.52;1765916;80;26318;-47
2022/12/31 07:27:00;;;;;;;26.52;15.08;;;;;;;6.03;89.35;100143.50;1766806;80;25526;-47
2022/12/31 07:29:52;;;;;;;24.18;14.75;;;;;;;6.09;89.34;100139.67;1794768;80;27594;-48
2022/12/31 07:32:41;;;;;;;26.48;14.73;;;;;;;6.12;89.39;100137.77;1784743;80;25598;-46
2022/12/31 07:35:24;;;;;;;25.17;16.27;;;;;;;6.17;89.52;100135.03;1795249;80;25520;-48
2022/12/31 07:38:05;;;;;;;26.10;15.05;;;;;;;6.24;89.47;100141.97;1794973;80;25522;-47
2022/12/31 07:40:46;;;;;;;23.65;14.58;;;;;;;6.28;89.55;100141.13;1794908;80;25377;-46
2022/12/31 07:43:42;;;;;;;27.13;14.78;;;;;;;6.35;89.59;100150.17;1795034;79;27515;-46
2022/12/31 07:46:46;;;;;;;27.10;14.23;;;;;;;6.40;89.52;100146.64;1700354;84;25687;-46
2022/12/31 07:49:15;;;;;;;23.60;14.58;;;;;;;6.44;89.60;100139.08;1729536;83;25537;-50
2022/12/31 07:51:42;;;;;;;25.92;14.60;;;;;;;6.50;89.53;100144.67;1755786;81;25542;-47
2022/12/31 07:54:09;;;;;;;26.85;14.53;;;;;;;6.55;89.63;100146.48;1729679;83;25690;-47
2022/12/31 07:56:35;;;;;;;21.17;13.05;;;;;;;6.60;89.57;100141.05;1755532;81;27596;-48
2022/12/31 07:59:24;;;;;;;23.57;13.25;;;;;;;6.65;89.55;100134.82;1729595;83;25833;-47
2022/12/31 08:01:59;;;;;;;22.77;13.83;;;;;;;6.69;89.54;100133.97;1755613;81;25512;-47
2022/12/31 08:04:48;;;;;;;28.92;15.00;;;;;;;6.77;89.54;100137.11;1755605;81;25530;-46
2022/12/31 08:07:49;;;;;;;21.87;12.63;;;;;;;6.82;89.49;100139.73;1755572;81;25662;-48
2022/12/31 08:10:41;;;;;;;25.35;13.53;;;;;;;6.88;89.38;100135.91;1755506;81;27486;-50
2022/12/31 08:13:11;;;;;;;20.30;12.60;;;;;;;6.94;89.35;100136.64;1755212;81;27390;-48
2022/12/31 08:15:39;;;;;;;23.50;13.10;;;;;;;7.00;89.19;100136.28;1730463;81;25685;-47
2022/12/31 08:18:07;;;;;;;22.48;13.03;;;;;;;7.05;89.18;100140.25;1759897;80;25668;-51
2022/12/31 08:20:39;;;;;;;20.43;12.95;;;;;;;7.10;89.13;100146.13;1827547;78;25637;-52
2022/12/31 08:23:22;;;;;;;19.73;11.70;;;;;;;7.16;89.11;100153.02;1793927;80;27469;-48
2022/12/31 08:26:12;;;;;;;22.20;12.25;;;;;;;7.23;89.04;100160.17;1797189;78;25719;-50
2022/12/31 08:29:05;;;;;;;21.10;11.93;;;;;;;7.29;89.00;100150.96;1794947;80;25540;-48
2022/12/31 08:32:01;;;;;;;20.35;12.53;;;;;;;7.35;88.67;100151.68;1825891;78;25565;-49
2022/12/31 08:34:58;;;;;;;21.20;12.68;;;;;;;7.39;88.40;100140.61;1813297;78;25553;-48
2022/12/31 08:37:39;;;;;;;21.55;12.30;;;;;;;7.43;88.36;100144.86;1819494;78;27543;-47
2022/12/31 08:40:35;;;;;;;20.12;12.10;;;;;;;7.45;88.23;100146.70;1765896;80;26326;-46
2022/12/31 08:43:35;;;;;;;17.85;11.50;;;;;;;7.50;88.26;100151.22;1824911;78;25445;-47
2022/12/31 08:46:05;;;;;;;16.50;10.68;;;;;;;7.55;88.16;100152.50;1793795;80;25647;-49
2022/12/31 08:48:43;;;;;;;19.10;11.28;;;;;;;7.60;88.16;100159.94;1826708;78;25544;-48
2022/12/31 08:51:18;;;;;;;20.80;11.48;;;;;;;7.65;88.15;100168.49;1789090;80;27542;-48
2022/12/31 08:53:47;;;;;;;17.10;11.35;;;;;;;7.69;87.97;100168.16;1789205;80;25592;-47
2022/12/31 08:56:37;;;;;;;18.65;11.63;;;;;;;7.74;87.99;100169.42;1789266;80;25622;-47
2022/12/31 08:59:15;;;;;;;18.45;10.55;;;;;;;7.78;87.71;100174.49;1788505;80;25569;-47
2022/12/31 09:01:59;;;;;;;22.05;11.18;;;;;;;7.81;87.62;100167.70;1789209;80;25416;-51
2022/12/31 09:04:34;;;;;;;15.85;10.55;;;;;;;7.84;87.62;100178.69;1789136;80;28302;-47
2022/12/31 09:07:03;;;;;;;18.02;11.48;;;;;;;7.89;87.53;100171.64;1789033;80;25557;-49
2022/12/31 09:09:39;;;;;;;;;;;;;;;7.96;87.19;100172.84;1760759;80;25470;-49
2022/12/31 09:12:29;;;;;;;18.50;10.65;;;;;;;8.01;87.39;100176.80;1821413;78;27680;-48
2022/12/31 09:15:01;;;;;;;16.10;10.25;;;;;;;8.08;87.49;100181.03;1788894;80;25563;-49
2022/12/31 09:17:39;;;;;;;17.87;9.58;;;;;;;8.14;87.29;100176.61;1820826;78;27577;-48
2022/12/31 09:20:26;;;;;;;18.10;10.60;;;;;;;8.19;87.18;100170.34;1788357;80;25805;-48
2022/12/31 09:22:55;;;;;;;17.17;10.30;;;;;;;8.23;86.82;100168.09;1820390;78;25450;-48
2022/12/31 09:25:24;;;;;;;17.20;9.78;;;;;;;8.29;86.63;100166.66;1821512;78;25551;-49
2022/12/31 09:28:20;;;;;;;19.30;9.85;;;;;;;8.34;86.80;100166.03;1789184;80;25601;-50
2022/12/31 09:31:16;;;;;;;13.72;9.50;;;;;;;8.40;86.61;100167.52;1785524;80;27577;-49
2022/12/31 09:34:05;;;;;;;14.07;9.53;;;;;;;8.45;86.12;100158.59;1788650;80;25556;-48
2022/12/31 09:36:39;;;;;;;14.80;9.10;;;;;;;8.50;86.21;100151.75;1788200;80;25611;-47
2022/12/31 09:39:23;;;;;;;17.85;9.88;;;;;;;8.56;85.58;100147.88;1789024;80;25607;-49
2022/12/31 09:41:58;;;;;;;13.70;8.60;;;;;;;8.65;86.20;100128.28;1788430;80;25386;-47
2022/12/31 09:44:44;;;;;;;19.02;9.68;;;;;;;8.75;86.34;100115.41;1789009;80;27496;-48
2022/12/31 09:47:28;;;;;;;14.10;8.45;;;;;;;8.95;87.01;100120.91;1735178;80;25968;-49
2022/12/31 09:50:23;;;;;;;14.50;9.20;;;;;;;9.25;85.73;100127.33;1789666;80;25556;-49
2022/12/31 09:53:23;;;;;;;13.72;8.18;;;;;;;9.56;85.13;100120.67;1792164;80;25546;-49
2022/12/31 09:56:04;;;;;;;15.80;9.15;;;;;;;9.80;85.07;100112.25;1792179;80;25397;-48
2022/12/31 09:59:02;;;;;;;15.45;8.43;;;;;;;9.90;82.75;100131.48;1791923;80;27494;-48
2022/12/31 10:01:51;;;;;;;12.75;8.53;;;;;;;9.87;82.84;100113.97;1792157;80;25576;-52
2022/12/31 10:04:44;;;;;;;12.30;7.92;;;;;;;9.85;82.89;100120.80;1791378;80;25541;-48
2022/12/31 10:07:25;;;;;;;14.30;8.98;;;;;;;9.82;82.66;100116.00;1756325;81;26088;-50
2022/12/31 10:10:02;;;;;;;11.12;7.37;;;;;;;9.81;82.44;100116.56;1754183;80;25609;-48
2022/12/31 10:12:55;;;;;;;13.38;8.40;;;;;;;9.89;82.95;100122.58;1769144;81;27486;-49
2022/12/31 10:15:55;;;;;;;12.37;8.00;;;;;;;10.05;83.26;100122.20;1768771;81;25731;-49
2022/12/31 10:18:45;;;;;;;13.18;7.35;;;;;;;10.26;82.46;100119.75;1768251;81;25449;-49
2022/12/31 10:21:34;;;;;;;;;;;;;;;10.31;81.70;100124.23;1772203;81;27745;-49
2022/12/31 10:24:23;;;;;;;15.30;7.75;;;;;;;10.22;81.47;100106.06;1769077;81;31022;-48
2022/12/31 10:27:20;;;;;;;13.85;9.23;;;;;;;10.16;81.35;100107.86;1761275;81;27342;-49
2022/12/31 10:30:02;;;;;;;11.70;8.30;;;;;;;10.07;81.30;100096.44;1706717;84;25461;-52
2022/12/31 10:32:48;;;;;;;13.13;8.63;;;;;;;10.05;81.62;100091.91;1706517;84;25529;-50
2022/12/31 10:35:53;;;;;;;13.15;8.10;;;;;;;10.10;81.51;100089.07;1706238;84;25605;-49
2022/12/31 10:38:56;;;;;;;13.60;8.00;;;;;;;10.29;81.52;100092.10;1706103;84;25591;-50
2022/12/31 10:41:54;;;;;;;12.70;8.18;;;;;;;10.29;81.05;100083.43;1704813;84;27825;-52
2022/12/31 10:44:51;;;;;;;13.48;8.13;;;;;;;10.25;80.45;100079.77;1722831;82;27425;-50
2022/12/31 10:48:00;;;;;;;11.03;7.80;;;;;;;10.36;80.96;100098.45;1721001;83;25497;-47
2022/12/31 10:50:47;;;;;;;14.20;7.65;;;;;;;10.98;81.89;100079.90;1710057;83;25584;-48
2022/12/31 10:54:09;;;;;;;12.80;8.05;;;;;;;11.53;80.87;100073.08;1692127;84;25538;-48
2022/12/31 10:57:14;;;;;;;10.68;7.10;;;;;;;11.54;78.49;100067.34;1679104;84;27786;-64
2022/12/31 10:59:55;;;;;;;11.30;7.08;;;;;;;11.32;77.38;100058.02;1691997;84;27575;-68
2022/12/31 11:02:54;;;;;;;12.23;7.70;;;;;;;11.18;77.68;100063.03;1701901;84;25743;-72
2022/12/31 11:05:57;;;;;;;11.78;6.95;;;;;;;11.09;77.50;100054.70;1692280;84;25742;-66
2022/12/31 11:08:53;;;;;;;10.68;7.22;;;;;;;10.99;77.12;100057.94;1702901;84;25650;-68
2022/12/31 11:11:31;;;;;;;13.93;7.80;;;;;;;10.89;77.77;100054.19;1692201;84;27471;-79
2022/12/31 11:14:23;;;;;;;11.70;7.75;;;;;;;10.81;78.15;100049.02;1703097;84;25674;-71
2022/12/31 11:17:07;;;;;;;9.73;7.05;;;;;;;10.81;78.20;100040.08;1692127;84;25477;-71
2022/12/31 11:20:11;;;;;;;10.55;6.85;;;;;;;10.81;78.45;100028.72;1653763;86;25828;-67
2022/12/31 11:23:16;;;;;;;11.33;7.00;;;;;;;10.79;78.97;99999.81;1668800;86;25610;-67
2022/12/31 11:26:19;;;;;;;8.40;5.95;;;;;;;10.83;79.43;99995.38;1638266;85;27435;-66
2022/12/31 11:29:24;;;;;;;15.95;7.12;;;;;;;10.98;79.74;100000.88;1698023;84;25848;-69
2022/12/31 11:32:18;;;;;;;10.13;6.87;;;;;;;11.47;80.79;100010.13;1599250;89;25858;-74
2022/12/31 11:35:01;;;;;;;10.70;6.97;;;;;;;11.63;78.72;100022.63;1599304;89;25516;-71
2022/12/31 11:37:39;;;;;;;8.85;6.40;;;;;;;11.65;78.22;100027.73;1601674;89;25526;-75
2022/12/31 11:40:42;;;;;;;10.38;6.90;;;;;;;11.62;77.83;100029.72;1601723;89;27481;-68
2022/12/31 11:43:14;;;;;;;10.23;7.40;;;;;;;11.52;77.23;100026.22;1580593;89;26185;-73
2022/12/31 11:45:57;;;;;;;12.33;7.15;;;;;;;11.36;77.14;100034.63;1601913;89;25605;-77
2022/12/31 11:49:21;;;;;;;10.50;7.15;;;;;;;11.27;77.14;100044.64;1545345;92;25636;-81
2022/12/31 11:52:30;;;;;;;11.25;6.83;;;;;;;11.15;77.45;100050.70;1545723;92;25499;-74
2022/12/31 11:55:10;;;;;;;11.12;6.92;;;;;;;11.03;77.83;100021.02;1485177;96;27677;-71
2022/12/31 11:57:41;;;;;;;8.88;6.67;;;;;;;10.97;78.17;100009.31;1500692;95;25590;-78
2022/12/31 12:00:22;;;;;;;8.88;6.80;;;;;;;10.92;77.88;100011.61;1471041;97;25601;-76
2022/12/31 12:02:53;;;;;;;13.88;7.10;;;;;;;10.90;78.57;100005.73;1518219;93;25631;-72
2022/12/31 12:05:24;;;;;;;12.63;7.12;;;;;;;10.99;78.71;100028.73;1515146;94;25574;-75
2022/12/31 12:07:52;;;;;;;13.03;6.70;;;;;;;11.02;78.76;100020.77;1515199;94;29036;-76
2022/12/31 12:10:39;;;;;;;9.80;7.08;;;;;;;11.03;78.67;100015.61;1512597;94;25775;-75
2022/12/31 12:13:26;;;;;;;11.90;6.80;;;;;;;10.99;78.47;100006.52;1561270;87;25809;-74
2022/12/31 12:16:04;;;;;;;10.28;7.12;;;;;;;10.98;78.45;100009.54;1637694;87;25510;-74